Time;durP1;ratioP1;P1;durP2;ratioP2;P2;SDS_P1;SDS_P2;PMS_P1;PMS_P2;Temp;Humidity;BMP_temperature;BMP_pressure;BME280_temperature;BME280_humidity;BME280_pressure;Samples;Min_cycle;Max_cycle;Signal;HPM_P1;HPM_P2
2024/01/10 00:02:24;;;;;;;18.77;11.70;;;;;;;;;;6286204;22;20455;-80
2024/01/10 00:04:51;;;;;;;17.75;11.07;;;;;;;;;;6286275;22;20078;-80
2024/01/10 00:07:17;;;;;;;19.33;12.23;;;;;;;;;;6313480;22;20023;-80
2024/01/10 00:09:43;;;;;;;18.38;10.50;;;;;;;;;;6287656;22;20421;-80
2024/01/10 00:12:09;;;;;;;16.15;10.73;;;;;;;;;;6313743;22;20019;-80
2024/01/10 00:14:35;;;;;;;20.10;11.85;;;;;;;;;;6314493;22;20334;-80
2024/01/10 00:17:01;;;;;;;16.95;10.85;;;;;;;;;;6285983;22;20335;-80
2024/01/10 00:19:27;;;;;;;21.58;13.82;;;;;;;;;;6285787;22;20050;-80
2024/01/10 00:21:53;;;;;;;18.10;11.55;;;;;;;;;;6285654;22;20447;-80
2024/01/10 00:24:19;;;;;;;16.70;11.10;;;;;;;;;;6314416;22;20022;-80
2024/01/10 00:26:45;;;;;;;18.50;11.50;;;;;;;;;;6285973;22;20015;-80
2024/01/10 00:29:11;;;;;;;16.90;10.52;;;;;;;;;;6286857;22;20029;-80
2024/01/10 00:31:37;;;;;;;18.13;11.63;;;;;;;;;;6286231;22;20038;-80
2024/01/10 00:34:03;;;;;;;19.30;12.48;;;;;;;;;;6314441;22;20015;-80
2024/01/10 00:36:30;;;;;;;20.20;12.18;;;;;;;;;;6259994;22;20026;-80
2024/01/10 00:38:56;;;;;;;18.27;11.23;;;;;;;;;;6261125;22;20072;-80
2024/01/10 00:41:22;;;;;;;18.50;11.85;;;;;;;;;;6260920;22;20019;-80
2024/01/10 00:43:48;;;;;;;18.25;11.85;;;;;;;;;;6261170;22;20019;-80
2024/01/10 00:46:14;;;;;;;18.58;11.25;;;;;;;;;;6260781;22;20057;-80
2024/01/10 00:48:40;;;;;;;19.38;12.68;;;;;;;;;;6260671;22;20117;-80
2024/01/10 00:51:08;;;;;;;16.23;11.05;;;;;;;;;;6261006;22;20015;-80
2024/01/10 00:53:35;;;;;;;16.98;10.77;;;;;;;;;;6261082;22;20019;-80
2024/01/10 00:56:01;;;;;;;18.95;11.82;;;;;;;;;;6260627;22;20012;-80
2024/01/10 00:58:27;;;;;;;18.33;10.95;;;;;;;;;;6260927;22;20383;-80
2024/01/10 01:00:53;;;;;;;17.10;10.85;;;;;;;;;;6261027;22;20012;-80
2024/01/10 01:03:19;;;;;;;15.50;10.65;;;;;;;;;;6261190;22;20012;-80
2024/01/10 01:05:45;;;;;;;18.00;11.70;;;;;;;;;;6286818;22;20074;-80
2024/01/10 01:08:11;;;;;;;16.40;10.63;;;;;;;;;;6260196;22;20388;-80
2024/01/10 01:10:37;;;;;;;19.65;11.70;;;;;;;;;;6260900;22;20026;-80
2024/01/10 01:13:03;;;;;;;19.13;11.90;;;;;;;;;;6260201;22;20019;-80
2024/01/10 01:15:29;;;;;;;17.25;11.52;;;;;;;;;;6260726;22;20094;-79
2024/01/10 01:17:55;;;;;;;21.95;12.45;;;;;;;;;;6260686;22;20026;-80
2024/01/10 01:20:21;;;;;;;17.52;11.38;;;;;;;;;;6289211;22;20019;-80
2024/01/10 01:22:47;;;;;;;22.25;13.30;;;;;;;;;;6296808;22;20363;-79
2024/01/10 01:25:13;;;;;;;21.17;12.35;;;;;;;;;;6270539;22;20098;-80
2024/01/10 01:27:39;;;;;;;21.02;13.25;;;;;;;;;;6293995;22;20011;-80
2024/01/10 01:30:06;;;;;;;23.02;13.13;;;;;;;;;;6268354;22;20057;-79
2024/01/10 01:32:32;;;;;;;18.60;13.18;;;;;;;;;;6287029;22;20015;-80
2024/01/10 01:34:58;;;;;;;20.73;14.05;;;;;;;;;;6261344;22;20046;-80
2024/01/10 01:37:24;;;;;;;22.35;13.68;;;;;;;;;;6261168;22;20102;-80
2024/01/10 01:39:50;;;;;;;18.85;13.27;;;;;;;;;;6260723;22;20016;-80
2024/01/10 01:42:16;;;;;;;20.95;14.02;;;;;;;;;;6260953;22;20030;-80
2024/01/10 01:44:42;;;;;;;20.98;13.57;;;;;;;;;;6260667;22;20015;-79
2024/01/10 01:47:08;;;;;;;20.42;13.20;;;;;;;;;;6260030;22;20021;-80
2024/01/10 01:49:34;;;;;;;22.98;14.05;;;;;;;;;;6286514;22;20340;-80
2024/01/10 01:52:00;;;;;;;19.40;12.65;;;;;;;;;;6260186;22;20019;-79
2024/01/10 01:54:27;;;;;;;19.00;12.88;;;;;;;;;;6260270;22;20011;-79
2024/01/10 01:56:53;;;;;;;18.40;13.13;;;;;;;;;;6312599;22;20045;-79
2024/01/10 01:59:20;;;;;;;20.42;13.40;;;;;;;;;;6260680;22;20077;-80
2024/01/10 02:01:46;;;;;;;18.55;13.30;;;;;;;;;;6260497;22;20084;-80
2024/01/10 02:04:12;;;;;;;20.70;14.15;;;;;;;;;;6259947;22;20019;-79
2024/01/10 02:06:38;;;;;;;21.98;13.63;;;;;;;;;;6285625;22;20015;-80
2024/01/10 02:09:05;;;;;;;21.15;14.05;;;;;;;;;;6285362;22;20019;-79
2024/01/10 02:11:31;;;;;;;23.88;15.10;;;;;;;;;;6260417;22;20021;-80
2024/01/10 02:13:57;;;;;;;24.20;15.45;;;;;;;;;;6260572;22;20089;-80
2024/01/10 02:16:24;;;;;;;21.88;13.85;;;;;;;;;;6259600;22;20122;-79
2024/01/10 02:18:50;;;;;;;25.50;16.23;;;;;;;;;;6285855;22;20019;-80
2024/01/10 02:21:17;;;;;;;24.38;15.20;;;;;;;;;;6260760;22;20055;-79
2024/01/10 02:23:43;;;;;;;24.75;14.95;;;;;;;;;;6259167;22;20016;-79
2024/01/10 02:26:09;;;;;;;23.63;14.60;;;;;;;;;;6259608;22;20015;-80
2024/01/10 02:28:35;;;;;;;22.58;13.75;;;;;;;;;;6260261;22;20011;-79
2024/01/10 02:31:02;;;;;;;22.10;14.13;;;;;;;;;;6260305;22;20092;-80
2024/01/10 02:33:28;;;;;;;19.05;12.45;;;;;;;;;;6259900;22;20011;-80
2024/01/10 02:35:54;;;;;;;23.60;13.50;;;;;;;;;;6260485;22;20022;-79
2024/01/10 02:38:23;;;;;;;20.55;13.82;;;;;;;;;;6312684;22;20027;-79
2024/01/10 02:40:49;;;;;;;20.33;13.15;;;;;;;;;;6259780;22;20054;-79
2024/01/10 02:43:15;;;;;;;20.35;13.52;;;;;;;;;;6258635;22;20023;-79
2024/01/10 02:45:41;;;;;;;21.00;13.75;;;;;;;;;;6259781;22;20034;-80
2024/01/10 02:48:07;;;;;;;21.17;13.43;;;;;;;;;;6260635;22;20011;-79
2024/01/10 02:50:34;;;;;;;17.38;11.70;;;;;;;;;;6285761;22;20026;-79
2024/01/10 02:53:00;;;;;;;17.98;11.48;;;;;;;;;;6279291;22;20094;-79
2024/01/10 02:55:26;;;;;;;17.83;11.90;;;;;;;;;;6280166;22;20073;-79
2024/01/10 02:57:52;;;;;;;19.17;12.20;;;;;;;;;;6254084;22;20416;-79
2024/01/10 03:00:18;;;;;;;16.63;11.43;;;;;;;;;;6254730;22;20069;-79
2024/01/10 03:02:44;;;;;;;19.52;11.13;;;;;;;;;;6307474;22;20019;-79
2024/01/10 03:05:10;;;;;;;21.95;12.07;;;;;;;;;;6254566;22;20065;-79
2024/01/10 03:07:36;;;;;;;17.45;11.20;;;;;;;;;;6254130;22;20011;-79
2024/01/10 03:10:03;;;;;;;17.88;10.98;;;;;;;;;;6254328;22;20432;-79
2024/01/10 03:12:29;;;;;;;17.67;11.90;;;;;;;;;;6256673;22;20048;-79
2024/01/10 03:14:55;;;;;;;19.30;12.13;;;;;;;;;;6283538;22;20015;-79
2024/01/10 03:17:22;;;;;;;17.77;11.95;;;;;;;;;;6254651;22;20102;-79
2024/01/10 03:19:48;;;;;;;17.10;11.75;;;;;;;;;;6253921;22;20016;-79
2024/01/10 03:22:14;;;;;;;19.17;12.07;;;;;;;;;;6254459;22;20015;-79
2024/01/10 03:24:40;;;;;;;18.10;11.35;;;;;;;;;;6254219;22;20098;-79
2024/01/10 03:27:06;;;;;;;18.25;11.30;;;;;;;;;;6280005;22;20344;-79
2024/01/10 03:29:32;;;;;;;16.30;11.30;;;;;;;;;;6254720;22;20038;-79
2024/01/10 03:31:58;;;;;;;20.30;12.30;;;;;;;;;;6280314;22;20081;-79
2024/01/10 03:34:24;;;;;;;19.33;12.20;;;;;;;;;;6281773;22;20448;-79
2024/01/10 03:36:50;;;;;;;19.00;12.57;;;;;;;;;;6255502;22;20460;-79
2024/01/10 03:39:16;;;;;;;20.60;12.70;;;;;;;;;;6254022;22;20129;-79
2024/01/10 03:41:42;;;;;;;19.15;12.93;;;;;;;;;;6308664;22;20164;-79
2024/01/10 03:44:08;;;;;;;20.60;12.45;;;;;;;;;;6282475;22;20119;-79
2024/01/10 03:46:34;;;;;;;19.60;13.68;;;;;;;;;;6281892;22;20015;-79
2024/01/10 03:49:00;;;;;;;19.50;13.35;;;;;;;;;;6256985;22;20011;-79
2024/01/10 03:51:26;;;;;;;22.70;13.68;;;;;;;;;;6257981;22;20336;-79
2024/01/10 03:53:54;;;;;;;21.42;13.55;;;;;;;;;;6257718;22;20336;-79
2024/01/10 03:56:21;;;;;;;21.50;14.02;;;;;;;;;;6256498;22;20023;-79
2024/01/10 03:58:49;;;;;;;21.23;14.18;;;;;;;;;;6257587;22;20046;-79
2024/01/10 04:01:16;;;;;;;22.92;15.00;;;;;;;;;;6256914;22;20515;-79
2024/01/10 04:03:42;;;;;;;22.48;13.60;;;;;;;;;;6257373;22;20015;-79
2024/01/10 04:06:08;;;;;;;20.92;14.27;;;;;;;;;;6257047;22;20017;-79
2024/01/10 04:08:34;;;;;;;23.65;14.18;;;;;;;;;;6257340;22;20094;-79
2024/01/10 04:11:00;;;;;;;24.10;14.38;;;;;;;;;;6257051;22;20019;-79
2024/01/10 04:13:26;;;;;;;22.10;14.25;;;;;;;;;;6257280;22;20051;-79
2024/01/10 04:15:52;;;;;;;21.75;14.07;;;;;;;;;;6282467;22;20347;-79
2024/01/10 04:18:18;;;;;;;22.13;14.55;;;;;;;;;;6256955;22;20031;-79
2024/01/10 04:20:44;;;;;;;22.48;14.50;;;;;;;;;;6257488;22;20012;-79
2024/01/10 04:23:10;;;;;;;22.33;14.60;;;;;;;;;;6257139;22;20020;-81
2024/01/10 04:25:36;;;;;;;22.42;14.05;;;;;;;;;;6257322;22;20020;-79
2024/01/10 04:28:03;;;;;;;22.95;14.13;;;;;;;;;;6282246;22;20060;-79
2024/01/10 04:30:29;;;;;;;21.50;15.18;;;;;;;;;;6256318;22;20015;-79
2024/01/10 04:32:55;;;;;;;21.67;13.73;;;;;;;;;;6282434;22;20019;-79
2024/01/10 04:35:21;;;;;;;20.83;14.25;;;;;;;;;;6282345;22;20020;-79
2024/01/10 04:37:47;;;;;;;25.00;14.82;;;;;;;;;;6257484;22;20015;-79
2024/01/10 04:40:13;;;;;;;24.00;14.55;;;;;;;;;;6257982;22;20077;-79
2024/01/10 04:42:39;;;;;;;25.27;15.15;;;;;;;;;;6258833;22;20011;-79
2024/01/10 04:45:07;;;;;;;23.13;14.38;;;;;;;;;;6258392;22;20042;-79
2024/01/10 04:47:33;;;;;;;22.15;14.23;;;;;;;;;;6259136;22;20011;-79
2024/01/10 04:49:59;;;;;;;24.60;14.60;;;;;;;;;;6259787;22;20125;-79
2024/01/10 04:52:25;;;;;;;23.85;13.68;;;;;;;;;;6259073;22;20016;-79
2024/01/10 04:54:51;;;;;;;23.42;15.43;;;;;;;;;;6259230;22;20019;-79
2024/01/10 04:57:17;;;;;;;23.25;13.98;;;;;;;;;;6258278;22;20022;-79
2024/01/10 04:59:43;;;;;;;21.00;13.80;;;;;;;;;;6259134;22;20015;-79
2024/01/10 05:02:10;;;;;;;19.13;13.25;;;;;;;;;;6258580;22;20467;-79
2024/01/10 05:04:36;;;;;;;20.45;13.18;;;;;;;;;;6285941;22;20019;-79
2024/01/10 05:07:02;;;;;;;19.48;12.95;;;;;;;;;;6259218;22;20064;-79
2024/01/10 05:09:28;;;;;;;21.58;13.57;;;;;;;;;;6260178;22;20035;-79
2024/01/10 05:11:54;;;;;;;21.40;13.00;;;;;;;;;;6259146;22;20023;-79
2024/01/10 05:14:21;;;;;;;21.38;13.65;;;;;;;;;;6259144;22;20292;-79
2024/01/10 05:16:48;;;;;;;23.30;14.88;;;;;;;;;;6258447;22;20348;-79
2024/01/10 05:19:14;;;;;;;24.45;16.48;;;;;;;;;;6258627;22;20027;-79
2024/01/10 05:21:40;;;;;;;26.75;17.05;;;;;;;;;;6259230;22;20023;-79
2024/01/10 05:24:06;;;;;;;21.20;13.95;;;;;;;;;;6259529;22;20019;-79
2024/01/10 05:26:32;;;;;;;23.25;14.02;;;;;;;;;;6259449;22;20057;-79
2024/01/10 05:28:58;;;;;;;21.00;13.52;;;;;;;;;;6284189;22;20121;-79
2024/01/10 05:31:24;;;;;;;21.67;13.82;;;;;;;;;;6258543;22;20061;-79
2024/01/10 05:33:50;;;;;;;20.00;13.48;;;;;;;;;;6283863;22;20017;-79
2024/01/10 05:36:16;;;;;;;21.27;13.60;;;;;;;;;;6259095;22;20015;-79
2024/01/10 05:38:42;;;;;;;22.80;13.65;;;;;;;;;;6258865;22;20057;-79
2024/01/10 05:41:08;;;;;;;20.20;13.35;;;;;;;;;;6259119;22;20019;-79
2024/01/10 05:43:34;;;;;;;19.23;13.38;;;;;;;;;;6284613;22;20509;-79
2024/01/10 05:46:00;;;;;;;20.65;13.50;;;;;;;;;;6312767;22;20018;-79
2024/01/10 05:48:26;;;;;;;21.15;13.85;;;;;;;;;;6258974;22;20019;-79
2024/01/10 05:50:52;;;;;;;22.33;13.45;;;;;;;;;;6258563;22;20024;-79
2024/01/10 05:53:18;;;;;;;24.05;15.18;;;;;;;;;;6259701;22;20411;-79
2024/01/10 05:55:44;;;;;;;26.38;17.33;;;;;;;;;;6284963;22;20015;-79
2024/01/10 05:58:11;;;;;;;23.88;16.05;;;;;;;;;;6259183;22;20015;-79
2024/01/10 06:00:37;;;;;;;24.65;16.35;;;;;;;;;;6259139;22;20022;-79
2024/01/10 06:03:03;;;;;;;26.25;16.58;;;;;;;;;;6258818;22;20012;-79
2024/01/10 06:05:31;;;;;;;21.73;15.45;;;;;;;;;;6258830;22;20015;-79
2024/01/10 06:07:57;;;;;;;23.63;15.73;;;;;;;;;;6259599;22;20016;-79
2024/01/10 06:10:24;;;;;;;25.10;15.77;;;;;;;;;;6258067;22;20022;-79
2024/01/10 06:12:50;;;;;;;24.30;15.65;;;;;;;;;;6258334;22;20019;-79
2024/01/10 06:15:16;;;;;;;22.88;15.27;;;;;;;;;;6259169;22;20031;-79
2024/01/10 06:17:43;;;;;;;23.85;15.48;;;;;;;;;;6258905;22;20077;-79
2024/01/10 06:20:09;;;;;;;24.10;15.75;;;;;;;;;;6258276;22;20052;-79
2024/01/10 06:22:35;;;;;;;25.40;16.00;;;;;;;;;;6259282;22;20064;-79
2024/01/10 06:25:01;;;;;;;25.92;16.60;;;;;;;;;;6258652;22;20056;-79
2024/01/10 06:27:27;;;;;;;27.42;17.65;;;;;;;;;;6283565;22;20015;-79
2024/01/10 06:29:53;;;;;;;29.23;16.63;;;;;;;;;;6283736;22;20019;-79
2024/01/10 06:32:19;;;;;;;28.10;16.25;;;;;;;;;;6258578;22;20099;-79
2024/01/10 06:34:46;;;;;;;23.60;16.08;;;;;;;;;;6258020;22;20019;-79
2024/01/10 06:37:12;;;;;;;24.35;16.00;;;;;;;;;;6258143;22;20387;-79
2024/01/10 06:39:38;;;;;;;25.67;16.58;;;;;;;;;;6258227;22;20015;-80
2024/01/10 06:42:06;;;;;;;26.92;15.77;;;;;;;;;;6258238;22;20041;-80
2024/01/10 06:44:32;;;;;;;23.70;16.77;;;;;;;;;;6258491;22;20106;-79
2024/01/10 06:46:58;;;;;;;24.33;15.45;;;;;;;;;;6283779;22;20024;-79
2024/01/10 06:49:24;;;;;;;23.20;15.38;;;;;;;;;;6258315;22;20022;-79
2024/01/10 06:51:51;;;;;;;23.70;15.52;;;;;;;;;;6258080;22;20015;-79
2024/01/10 06:54:18;;;;;;;23.90;14.93;;;;;;;;;;6257151;22;20054;-79
2024/01/10 06:56:44;;;;;;;23.75;15.27;;;;;;;;;;6258009;22;20019;-79
2024/01/10 06:59:10;;;;;;;21.13;14.60;;;;;;;;;;6283567;22;20453;-79
2024/01/10 07:01:36;;;;;;;23.42;15.77;;;;;;;;;;6283165;22;20030;-79
2024/01/10 07:04:04;;;;;;;23.13;15.32;;;;;;;;;;6257155;22;20098;-81
2024/01/10 07:06:31;;;;;;;21.63;13.90;;;;;;;;;;6283883;22;20019;-79
2024/01/10 07:08:58;;;;;;;22.23;15.32;;;;;;;;;;6258057;22;20067;-80
2024/01/10 07:11:24;;;;;;;21.55;14.60;;;;;;;;;;6311076;22;20016;-79
2024/01/10 07:13:50;;;;;;;24.08;15.35;;;;;;;;;;6256395;22;20448;-79
2024/01/10 07:16:16;;;;;;;24.77;15.90;;;;;;;;;;6256724;22;20019;-79
2024/01/10 07:18:43;;;;;;;22.88;14.98;;;;;;;;;;6256487;22;20493;-80
2024/01/10 07:21:10;;;;;;;22.95;15.40;;;;;;;;;;6256861;22;20420;-79
2024/01/10 07:23:40;;;;;;;25.52;15.68;;;;;;;;;;6257239;22;20051;-79
2024/01/10 07:26:06;;;;;;;22.73;15.10;;;;;;;;;;6257193;22;20095;-79
2024/01/10 07:28:32;;;;;;;25.13;16.20;;;;;;;;;;6255863;22;20018;-79
2024/01/10 07:31:00;;;;;;;25.10;16.67;;;;;;;;;;6257215;22;20027;-79
2024/01/10 07:33:26;;;;;;;22.45;15.60;;;;;;;;;;6257486;22;20015;-79
2024/01/10 07:35:54;;;;;;;25.33;15.95;;;;;;;;;;6257068;22;20026;-79
2024/01/10 07:38:20;;;;;;;23.30;15.18;;;;;;;;;;6256936;22;20016;-79
2024/01/10 07:40:47;;;;;;;22.73;14.77;;;;;;;;;;6256587;22;20015;-79
2024/01/10 07:43:13;;;;;;;25.00;14.82;;;;;;;;;;6256736;22;20126;-79
2024/01/10 07:45:39;;;;;;;21.40;14.73;;;;;;;;;;6256949;22;20069;-79
2024/01/10 07:48:05;;;;;;;21.90;15.00;;;;;;;;;;6256231;22;20343;-79
2024/01/10 07:50:31;;;;;;;20.58;14.02;;;;;;;;;;6256713;22;20011;-79
2024/01/10 07:52:57;;;;;;;20.58;14.20;;;;;;;;;;6307683;22;20058;-79
2024/01/10 07:55:23;;;;;;;22.95;14.65;;;;;;;;;;6279346;22;20030;-79
2024/01/10 07:57:50;;;;;;;23.92;15.20;;;;;;;;;;6253258;22;20054;-79
2024/01/10 08:00:16;;;;;;;23.25;14.95;;;;;;;;;;6253390;22;20060;-79
2024/01/10 08:02:42;;;;;;;22.73;15.05;;;;;;;;;;6253987;22;20029;-79
2024/01/10 08:05:08;;;;;;;21.60;14.77;;;;;;;;;;6253867;22;20016;-79
2024/01/10 08:07:38;;;;;;;25.20;16.63;;;;;;;;;;6253825;22;20065;-79
2024/01/10 08:10:09;;;;;;;30.60;15.32;;;;;;;;;;6253872;22;20019;-79
2024/01/10 08:12:35;;;;;;;24.10;15.52;;;;;;;;;;6253916;22;20478;-79
2024/01/10 08:15:01;;;;;;;23.20;14.57;;;;;;;;;;6254473;22;20197;-79
2024/01/10 08:17:27;;;;;;;22.38;13.80;;;;;;;;;;6281197;22;20034;-79
2024/01/10 08:19:53;;;;;;;21.88;13.68;;;;;;;;;;6255546;22;20053;-80
2024/01/10 08:22:20;;;;;;;20.60;14.02;;;;;;;;;;6281301;22;20026;-80
2024/01/10 08:24:46;;;;;;;21.00;14.27;;;;;;;;;;6255622;22;20098;-79
2024/01/10 08:27:13;;;;;;;25.90;15.35;;;;;;;;;;6281120;22;20030;-79
2024/01/10 08:29:39;;;;;;;22.88;13.80;;;;;;;;;;6255856;22;20051;-79
2024/01/10 08:32:05;;;;;;;26.10;15.30;;;;;;;;;;6256056;22;20041;-79
2024/01/10 08:34:31;;;;;;;34.08;17.60;;;;;;;;;;6255466;22;20321;-80
2024/01/10 08:36:57;;;;;;;23.23;14.90;;;;;;;;;;6255296;22;20023;-79
2024/01/10 08:39:25;;;;;;;23.50;14.55;;;;;;;;;;6255828;22;20390;-79
2024/01/10 08:41:52;;;;;;;23.92;12.93;;;;;;;;;;6255543;22;20015;-79
2024/01/10 08:44:19;;;;;;;18.88;11.65;;;;;;;;;;6256428;22;20011;-79
2024/01/10 08:46:45;;;;;;;18.67;11.68;;;;;;;;;;6281286;22;20056;-79
2024/01/10 08:49:11;;;;;;;17.02;10.52;;;;;;;;;;6281495;22;20015;-82
2024/01/10 08:51:37;;;;;;;21.50;13.15;;;;;;;;;;6309405;22;20019;-80
2024/01/10 08:54:04;;;;;;;19.25;11.55;;;;;;;;;;6256502;22;20019;-79
2024/01/10 08:56:30;;;;;;;16.58;9.60;;;;;;;;;;6281291;22;20023;-79
2024/01/10 08:58:56;;;;;;;14.18;9.25;;;;;;;;;;6309214;22;20467;-79
2024/01/10 09:01:22;;;;;;;17.20;9.63;;;;;;;;;;6256505;22;20167;-80
2024/01/10 09:03:49;;;;;;;14.65;8.60;;;;;;;;;;6256373;22;20357;-80
2024/01/10 09:06:15;;;;;;;15.40;8.07;;;;;;;;;;6256593;22;20021;-80
2024/01/10 09:08:41;;;;;;;16.40;8.38;;;;;;;;;;6255870;22;20015;-79
2024/01/10 09:11:07;;;;;;;15.63;7.30;;;;;;;;;;6256492;22;20026;-80
2024/01/10 09:13:33;;;;;;;15.40;8.00;;;;;;;;;;6281220;22;20052;-80
2024/01/10 09:15:59;;;;;;;15.98;8.85;;;;;;;;;;6256622;22;20019;-80
2024/01/10 09:18:26;;;;;;;16.35;8.85;;;;;;;;;;6256541;22;20383;-80
2024/01/10 09:20:52;;;;;;;15.82;8.73;;;;;;;;;;6281464;22;20448;-80
2024/01/10 09:23:18;;;;;;;16.23;9.07;;;;;;;;;;6281015;22;20466;-80
2024/01/10 09:25:44;;;;;;;18.90;9.75;;;;;;;;;;6256129;22;20011;-80
2024/01/10 09:28:10;;;;;;;16.65;9.00;;;;;;;;;;6308490;22;20015;-80
2024/01/10 09:30:36;;;;;;;18.58;9.55;;;;;;;;;;6256242;22;20019;-80
2024/01/10 09:33:02;;;;;;;19.88;10.48;;;;;;;;;;6255420;22;20011;-80
2024/01/10 09:35:28;;;;;;;17.25;9.13;;;;;;;;;;6256592;22;20015;-80
2024/01/10 09:37:54;;;;;;;17.65;8.52;;;;;;;;;;6256526;22;20030;-80
2024/01/10 09:40:21;;;;;;;27.10;12.07;;;;;;;;;;6281288;22;20038;-81
2024/01/10 09:42:54;;;;;;;20.92;10.10;;;;;;;;;;6309183;22;20072;-81
2024/01/10 09:45:21;;;;;;;17.80;9.35;;;;;;;;;;6282246;22;20162;-81
2024/01/10 09:47:49;;;;;;;16.63;9.40;;;;;;;;;;6255900;22;20347;-81
2024/01/10 09:50:16;;;;;;;14.73;8.70;;;;;;;;;;6281877;22;20466;-81
2024/01/10 09:52:52;;;;;;;19.33;9.60;;;;;;;;;;6256241;22;20012;-81
2024/01/10 09:55:19;;;;;;;16.23;9.23;;;;;;;;;;6280886;22;20042;-81
2024/01/10 09:57:45;;;;;;;18.40;8.98;;;;;;;;;;6255268;22;20071;-81
2024/01/10 10:00:11;;;;;;;21.63;11.07;;;;;;;;;;6256086;22;20018;-80
2024/01/10 10:02:39;;;;;;;17.88;9.18;;;;;;;;;;6282856;22;20086;-80
2024/01/10 10:05:15;;;;;;;25.02;10.93;;;;;;;;;;6258105;22;20019;-81
2024/01/10 10:07:44;;;;;;;24.17;10.45;;;;;;;;;;6257550;22;20011;-80
2024/01/10 10:10:12;;;;;;;19.00;9.20;;;;;;;;;;6257124;22;20020;-80
2024/01/10 10:12:47;;;;;;;19.90;8.77;;;;;;;;;;6282763;22;20015;-80
2024/01/10 10:15:18;;;;;;;18.23;7.83;;;;;;;;;;6310995;22;20027;-81
2024/01/10 10:17:48;;;;;;;16.95;8.23;;;;;;;;;;6282727;22;20418;-81
2024/01/10 10:20:20;;;;;;;15.93;8.02;;;;;;;;;;6309467;22;20011;-81
2024/01/10 10:23:07;;;;;;;14.10;7.35;;;;;;;;;;6310077;22;20321;-80
2024/01/10 10:25:37;;;;;;;17.35;8.55;;;;;;;;;;6256092;22;20094;-81
2024/01/10 10:28:04;;;;;;;17.40;10.00;;;;;;;;;;6257062;22;20019;-82
2024/01/10 10:30:31;;;;;;;17.92;8.30;;;;;;;;;;6281976;22;20019;-81
2024/01/10 10:32:57;;;;;;;15.80;7.28;;;;;;;;;;6256231;22;20015;-82
2024/01/10 10:35:23;;;;;;;16.30;7.50;;;;;;;;;;6281773;22;20019;-82
2024/01/10 10:37:51;;;;;;;15.02;7.85;;;;;;;;;;6309581;22;20068;-82
2024/01/10 10:40:18;;;;;;;15.23;8.15;;;;;;;;;;6281709;22;20019;-82
2024/01/10 10:43:04;;;;;;;14.10;7.20;;;;;;;;;;6256559;22;20015;-82
2024/01/10 10:45:32;;;;;;;16.60;8.10;;;;;;;;;;6256536;22;20034;-82
2024/01/10 10:47:59;;;;;;;14.35;7.78;;;;;;;;;;6255846;22;20348;-83
2024/01/10 10:50:26;;;;;;;17.67;7.72;;;;;;;;;;6282892;22;20050;-82
2024/01/10 10:52:53;;;;;;;16.13;7.57;;;;;;;;;;6256927;22;20015;-82
2024/01/10 10:55:19;;;;;;;15.30;7.38;;;;;;;;;;6257291;22;20019;-82
2024/01/10 10:57:46;;;;;;;12.68;7.57;;;;;;;;;;6256955;22;20019;-83
2024/01/10 11:00:16;;;;;;;14.98;7.65;;;;;;;;;;6282407;22;20109;-83
2024/01/10 11:02:45;;;;;;;15.68;7.82;;;;;;;;;;6256874;22;20094;-83
2024/01/10 11:05:12;;;;;;;14.88;7.72;;;;;;;;;;6256643;22;20448;-83
2024/01/10 11:07:41;;;;;;;15.32;6.75;;;;;;;;;;6310436;22;20016;-82
2024/01/10 11:10:13;;;;;;;16.52;8.00;;;;;;;;;;6256509;22;20023;-82
2024/01/10 11:12:45;;;;;;;13.88;7.40;;;;;;;;;;6256739;22;20019;-82
2024/01/10 11:15:11;;;;;;;13.88;7.38;;;;;;;;;;6259077;22;20042;-82
2024/01/10 11:17:44;;;;;;;14.25;7.18;;;;;;;;;;6309795;22;20030;-82
2024/01/10 11:20:10;;;;;;;14.73;7.22;;;;;;;;;;6281527;22;20043;-82
2024/01/10 11:22:55;;;;;;;13.82;7.03;;;;;;;;;;6309680;22;20019;-82
2024/01/10 11:25:21;;;;;;;13.13;6.53;;;;;;;;;;6309958;22;20011;-82
2024/01/10 11:27:52;;;;;;;14.80;6.85;;;;;;;;;;6309889;22;20011;-82
2024/01/10 11:30:31;;;;;;;13.93;7.18;;;;;;;;;;6309153;22;20344;-82
2024/01/10 11:32:57;;;;;;;12.73;6.63;;;;;;;;;;6309708;22;20014;-82
2024/01/10 11:35:24;;;;;;;13.55;7.10;;;;;;;;;;6255071;22;20015;-84
2024/01/10 11:37:51;;;;;;;14.68;6.68;;;;;;;;;;6284855;22;20019;-83
2024/01/10 11:40:24;;;;;;;13.50;6.10;;;;;;;;;;6282283;22;20090;-82
2024/01/10 11:42:52;;;;;;;12.73;6.97;;;;;;;;;;6283300;22;20073;-83
2024/01/10 11:45:34;;;;;;;19.42;8.02;;;;;;;;;;6257274;22;20022;-82
2024/01/10 11:48:00;;;;;;;11.75;5.80;;;;;;;;;;6256317;22;20011;-83
2024/01/10 11:50:26;;;;;;;11.00;6.00;;;;;;;;;;6283929;22;20370;-83
2024/01/10 11:52:55;;;;;;;11.45;6.82;;;;;;;;;;6284612;22;20050;-83
2024/01/10 11:55:40;;;;;;;11.25;5.45;;;;;;;;;;6258395;22;20524;-80
2024/01/10 11:58:11;;;;;;;10.95;5.47;;;;;;;;;;6258416;22;20054;-80
2024/01/10 12:00:37;;;;;;;11.20;5.22;;;;;;;;;;6312120;22;20015;-80
2024/01/10 12:03:03;;;;;;;10.43;5.13;;;;;;;;;;6259162;22;20011;-80
2024/01/10 12:05:29;;;;;;;8.27;4.93;;;;;;;;;;6311642;22;20050;-80
2024/01/10 12:07:56;;;;;;;11.07;5.88;;;;;;;;;;6258713;22;20034;-80
2024/01/10 12:10:22;;;;;;;11.85;5.43;;;;;;;;;;6258372;22;20118;-80
2024/01/10 12:12:48;;;;;;;11.85;6.15;;;;;;;;;;6257903;22;20023;-80
2024/01/10 12:15:15;;;;;;;9.35;4.45;;;;;;;;;;6312090;22;20464;-80
2024/01/10 12:17:41;;;;;;;9.27;5.25;;;;;;;;;;6259625;22;20015;-80
2024/01/10 12:20:07;;;;;;;10.00;5.38;;;;;;;;;;6283989;22;20019;-80
2024/01/10 12:22:33;;;;;;;10.27;5.28;;;;;;;;;;6284783;22;20081;-80
2024/01/10 12:25:05;;;;;;;11.98;4.95;;;;;;;;;;6259822;22;20019;-79
2024/01/10 12:27:31;;;;;;;10.90;5.80;;;;;;;;;;6284167;22;20386;-79
2024/01/10 12:29:58;;;;;;;8.82;5.30;;;;;;;;;;6312031;22;20058;-79
2024/01/10 12:32:24;;;;;;;12.45;5.60;;;;;;;;;;6284055;22;20084;-79
2024/01/10 12:34:55;;;;;;;11.55;5.53;;;;;;;;;;6312518;22;20448;-79
2024/01/10 12:37:21;;;;;;;10.10;5.35;;;;;;;;;;6311018;22;20030;-79
2024/01/10 12:39:47;;;;;;;11.13;5.70;;;;;;;;;;6257336;22;20386;-79
2024/01/10 12:42:13;;;;;;;12.30;5.18;;;;;;;;;;6257985;22;20019;-79
2024/01/10 12:44:43;;;;;;;11.40;5.70;;;;;;;;;;6258052;22;20011;-79
2024/01/10 12:47:19;;;;;;;9.52;5.43;;;;;;;;;;6259556;22;20026;-79
2024/01/10 12:49:45;;;;;;;9.55;4.90;;;;;;;;;;6258313;22;20039;-79
2024/01/10 12:52:13;;;;;;;8.43;4.65;;;;;;;;;;6259514;22;20022;-79
2024/01/10 12:54:39;;;;;;;8.77;4.97;;;;;;;;;;6258575;22;20046;-80
2024/01/10 12:57:06;;;;;;;10.10;5.07;;;;;;;;;;6258391;22;20029;-80
2024/01/10 12:59:32;;;;;;;10.93;4.80;;;;;;;;;;6311770;22;20045;-80
2024/01/10 13:01:58;;;;;;;8.32;4.47;;;;;;;;;;6283391;22;20023;-80
2024/01/10 13:04:24;;;;;;;12.13;5.57;;;;;;;;;;6258543;22;20019;-80
2024/01/10 13:06:50;;;;;;;9.43;4.80;;;;;;;;;;6284008;22;20074;-80
2024/01/10 13:09:16;;;;;;;10.02;5.25;;;;;;;;;;6310747;22;20095;-80
2024/01/10 13:11:43;;;;;;;12.30;6.03;;;;;;;;;;6282485;22;20023;-80
2024/01/10 13:14:09;;;;;;;12.90;5.88;;;;;;;;;;6281052;22;20019;-80
2024/01/10 13:16:35;;;;;;;10.73;6.20;;;;;;;;;;6255612;22;20026;-80
2024/01/10 13:19:01;;;;;;;11.93;6.07;;;;;;;;;;6255381;22;20031;-80
2024/01/10 13:21:27;;;;;;;12.25;5.85;;;;;;;;;;6256294;22;20011;-80
2024/01/10 13:23:53;;;;;;;11.18;6.22;;;;;;;;;;6256520;22;20023;-80
2024/01/10 13:26:19;;;;;;;10.10;5.20;;;;;;;;;;6283014;22;20015;-80
2024/01/10 13:28:45;;;;;;;13.70;6.03;;;;;;;;;;6283200;22;20054;-80
2024/01/10 13:31:12;;;;;;;15.00;7.03;;;;;;;;;;6308820;22;20015;-79
2024/01/10 13:33:38;;;;;;;14.68;7.60;;;;;;;;;;6310328;22;20019;-79
2024/01/10 13:36:05;;;;;;;12.43;5.90;;;;;;;;;;6282450;22;20019;-81
2024/01/10 13:38:31;;;;;;;13.93;6.93;;;;;;;;;;6281484;22;20400;-79
2024/01/10 13:40:57;;;;;;;14.80;7.65;;;;;;;;;;6280210;22;20102;-79
2024/01/10 13:43:23;;;;;;;11.80;6.75;;;;;;;;;;6282123;22;20043;-79
2024/01/10 13:45:49;;;;;;;12.35;6.80;;;;;;;;;;6285027;22;20019;-79
2024/01/10 13:48:15;;;;;;;13.40;6.53;;;;;;;;;;6254566;22;20019;-79
2024/01/10 13:50:42;;;;;;;13.30;6.13;;;;;;;;;;6280829;22;20084;-79
2024/01/10 13:53:08;;;;;;;11.88;6.22;;;;;;;;;;6255406;22;20047;-79
2024/01/10 13:55:35;;;;;;;11.48;6.55;;;;;;;;;;6280711;22;20027;-79
2024/01/10 13:58:01;;;;;;;12.27;6.55;;;;;;;;;;6280953;22;20065;-79
2024/01/10 14:00:27;;;;;;;11.15;6.45;;;;;;;;;;6309583;22;20017;-79
2024/01/10 14:02:58;;;;;;;14.25;7.10;;;;;;;;;;6256494;22;20102;-79
2024/01/10 14:05:25;;;;;;;12.52;7.20;;;;;;;;;;6281931;22;20352;-79
2024/01/10 14:07:51;;;;;;;12.02;6.90;;;;;;;;;;6281067;22;20017;-79
2024/01/10 14:10:17;;;;;;;14.20;6.72;;;;;;;;;;6255423;22;20015;-79
2024/01/10 14:12:43;;;;;;;13.10;7.13;;;;;;;;;;6280425;22;20371;-79
2024/01/10 14:15:09;;;;;;;15.23;7.57;;;;;;;;;;6307550;22;20037;-79
2024/01/10 14:17:35;;;;;;;13.88;7.45;;;;;;;;;;6281014;22;20015;-79
2024/01/10 14:20:01;;;;;;;13.27;6.60;;;;;;;;;;6255890;22;20042;-79